createdAt,value
2023-01-05T00:00:00.994Z,5.67
2023-01-05T00:05:03.095Z,6.20
2023-01-05T00:10:25.030Z,7.43
2023-01-05T00:15:45.442Z,8.13
2023-01-05T00:21:06.683Z,3.63
2023-01-05T00:26:08.254Z,4.57
2023-01-05T00:31:09.853Z,6.07
2023-01-05T00:36:11.491Z,8.00
2023-01-05T00:41:13.042Z,7.03
2023-01-05T00:46:14.665Z,10.00
2023-01-05T00:51:16.243Z,6.23
2023-01-05T00:56:17.841Z,4.10
2023-01-05T01:01:19.804Z,9.10
2023-01-05T01:06:21.520Z,4.73
2023-01-05T01:11:23.168Z,5.47
2023-01-05T01:16:24.788Z,6.37
2023-01-05T01:21:26.635Z,5.17
2023-01-05T01:26:28.255Z,6.97
2023-01-05T01:31:31.035Z,5.40
2023-01-05T01:36:32.843Z,9.03
2023-01-05T01:41:34.583Z,7.93
2023-01-05T01:46:37.903Z,10.77
2023-01-05T01:51:44.693Z,6.57
2023-01-05T01:56:51.619Z,7.30
2023-01-05T02:01:56.323Z,11.23
2023-01-05T02:06:59.138Z,6.23
2023-01-05T02:12:11.396Z,7.60
2023-01-05T02:17:25.860Z,6.43
2023-01-05T02:22:41.174Z,8.57
2023-01-05T02:27:49.883Z,7.27
2023-01-05T02:33:25.745Z,8.33
2023-01-05T02:38:37.565Z,6.83
2023-01-05T02:43:39.771Z,8.20
2023-01-05T02:48:42.211Z,12.43
2023-01-05T02:53:48.212Z,9.93
2023-01-05T02:59:08.566Z,5.23
2023-01-05T03:04:14.491Z,4.03
2023-01-05T03:09:20.097Z,7.37
2023-01-05T03:14:29.029Z,6.70
2023-01-05T03:19:36.913Z,9.10
2023-01-05T03:24:59.038Z,6.17
2023-01-05T03:30:19.831Z,7.30
2023-01-05T03:35:30.466Z,9.90
2023-01-05T03:40:35.070Z,7.50
2023-01-05T03:45:40.635Z,8.00
2023-01-05T03:50:44.908Z,8.77
2023-01-05T03:55:49.555Z,4.20
2023-01-05T04:00:51.522Z,9.30
2023-01-05T04:05:56.069Z,7.73
2023-01-05T04:11:12.831Z,7.30
2023-01-05T04:16:14.752Z,4.93
2023-01-05T04:21:17.428Z,5.67
2023-01-05T04:26:19.765Z,9.10
2023-01-05T04:31:24.558Z,10.13
2023-01-05T04:36:29.536Z,8.53
2023-01-05T04:41:33.001Z,9.40
2023-01-05T04:46:34.824Z,12.13
2023-01-05T04:51:37.610Z,8.90
2023-01-05T04:56:42.100Z,9.47
2023-01-05T05:01:44.570Z,8.17
2023-01-05T05:06:48.066Z,7.80
2023-01-05T05:11:50.655Z,5.63
2023-01-05T05:16:55.930Z,10.67
2023-01-05T05:21:57.590Z,7.60
2023-01-05T05:27:00.661Z,13.43
2023-01-05T05:32:02.195Z,7.87
2023-01-05T05:37:03.764Z,7.67
2023-01-05T05:42:05.360Z,9.60
2023-01-05T05:47:07.020Z,10.93
2023-01-05T05:52:08.622Z,8.63
2023-01-05T05:57:10.211Z,8.60
2023-01-05T06:02:11.905Z,8.57
2023-01-05T06:07:13.529Z,12.17
2023-01-05T06:12:15.230Z,13.37
2023-01-05T06:17:17.536Z,14.30
2023-01-05T06:22:19.058Z,6.67
2023-01-05T06:27:20.739Z,9.07
2023-01-05T06:32:22.312Z,10.37
2023-01-05T06:37:23.849Z,13.77
2023-01-05T06:42:25.610Z,9.23
2023-01-05T06:47:27.361Z,10.13
2023-01-05T06:52:29.083Z,7.13
2023-01-05T06:57:30.773Z,6.87
2023-01-05T07:02:32.942Z,6.87
2023-01-05T07:07:34.699Z,6.30
2023-01-05T07:12:36.286Z,5.97
2023-01-05T07:17:38.115Z,13.07
2023-01-05T07:22:39.767Z,6.93
2023-01-05T07:27:41.342Z,13.20
2023-01-05T07:32:42.901Z,13.53
2023-01-05T07:37:44.510Z,9.87
2023-01-05T07:42:50.962Z,7.47
2023-01-05T07:47:52.644Z,10.27
2023-01-05T07:52:54.286Z,8.07
2023-01-05T07:57:55.850Z,9.87
2023-01-05T08:02:57.479Z,11.23
2023-01-05T08:07:59.053Z,8.50
2023-01-05T08:13:22.601Z,10.10
2023-01-05T08:18:24.209Z,6.57
2023-01-05T08:23:27.499Z,8.80
2023-01-05T08:28:35.274Z,7.43
2023-01-05T08:33:37.182Z,13.80
2023-01-05T08:38:38.807Z,7.40
2023-01-05T08:43:40.855Z,7.87
2023-01-05T08:48:42.517Z,14.63
2023-01-05T08:53:44.796Z,11.23
2023-01-05T08:58:46.466Z,10.07
2023-01-05T09:03:48.287Z,12.07
2023-01-05T09:08:49.921Z,10.43
2023-01-05T09:13:56.624Z,17.83
2023-01-05T09:18:59.286Z,9.43
2023-01-05T09:24:00.901Z,12.63
2023-01-05T09:29:02.467Z,11.63
2023-01-05T09:34:04.052Z,15.03
2023-01-05T09:39:06.239Z,14.63
2023-01-05T09:44:19.848Z,10.53
2023-01-05T09:49:23.291Z,15.93
2023-01-05T09:54:27.693Z,18.33
2023-01-05T09:59:35.682Z,15.37
2023-01-05T10:04:37.377Z,14.30
2023-01-05T10:09:39.644Z,13.93
2023-01-05T10:14:50.858Z,10.97
2023-01-05T10:19:52.890Z,12.73
2023-01-05T10:25:06.615Z,12.27
2023-01-05T10:30:25.932Z,9.70
2023-01-05T10:36:00.648Z,11.57
2023-01-05T10:41:25.786Z,13.93
2023-01-05T10:46:35.008Z,13.70
2023-01-05T10:51:39.705Z,10.67
2023-01-05T10:56:41.230Z,7.83
2023-01-05T11:01:45.879Z,11.07
2023-01-05T11:06:48.044Z,7.23
2023-01-05T11:11:58.819Z,10.47
2023-01-05T11:17:03.692Z,8.67
2023-01-05T11:22:36.052Z,11.40
2023-01-05T11:27:37.679Z,10.97
2023-01-05T11:32:41.030Z,12.40
2023-01-05T11:37:44.437Z,11.00
2023-01-05T11:42:46.300Z,12.87
2023-01-05T11:47:50.755Z,11.17
2023-01-05T11:52:54.855Z,10.80
2023-01-05T11:58:19.139Z,9.37
2023-01-05T12:03:31.587Z,9.20
2023-01-05T12:08:43.996Z,7.73
2023-01-05T12:14:27.526Z,7.83
2023-01-05T12:19:38.043Z,6.63
2023-01-05T12:24:39.636Z,9.67
2023-01-05T12:35:24.855Z,10.03
2023-01-05T12:40:38.336Z,8.40
2023-01-05T12:45:49.073Z,8.83
2023-01-05T12:51:09.016Z,7.73
2023-01-05T12:56:27.828Z,7.87
2023-01-05T13:01:31.533Z,9.97
2023-01-05T13:06:41.302Z,6.33
2023-01-05T13:11:53.676Z,7.60
2023-01-05T13:17:01.234Z,6.60
2023-01-05T13:22:06.905Z,8.03
2023-01-05T13:27:08.913Z,11.03
2023-01-05T13:32:41.503Z,10.97
2023-01-05T13:38:08.062Z,10.10
2023-01-05T13:43:24.498Z,9.63
2023-01-05T13:48:58.076Z,7.43
2023-01-05T13:54:13.256Z,8.40
2023-01-05T13:59:34.656Z,7.67
2023-01-05T14:04:37.154Z,9.00
2023-01-05T14:09:58.970Z,9.27
2023-01-05T14:15:03.679Z,12.83
2023-01-05T14:20:34.044Z,7.37
2023-01-05T14:25:38.684Z,9.20
2023-01-05T14:30:40.282Z,7.47
2023-01-05T14:35:42.744Z,12.20
2023-01-05T14:40:46.897Z,13.47
2023-01-05T14:46:21.132Z,8.27
2023-01-05T14:51:26.334Z,10.60
2023-01-05T14:56:29.970Z,8.03
2023-01-05T15:01:46.345Z,12.10
2023-01-05T15:06:56.573Z,13.37
2023-01-05T15:12:36.108Z,9.03
2023-01-05T15:24:14.060Z,9.87
2023-01-05T15:36:01.490Z,7.63
2023-01-05T15:41:46.065Z,10.83
2023-01-05T15:46:48.267Z,11.07
2023-01-05T15:51:52.264Z,8.37
2023-01-05T15:56:54.291Z,11.70
2023-01-05T16:01:56.055Z,6.97
2023-01-05T16:07:00.253Z,7.20
2023-01-05T16:12:09.469Z,13.53
2023-01-05T16:17:15.503Z,7.77
2023-01-05T16:22:21.872Z,7.07
2023-01-05T16:27:23.532Z,11.87
2023-01-05T16:32:54.924Z,7.13
2023-01-05T16:38:09.715Z,8.97
2023-01-05T16:43:30.001Z,9.10
2023-01-05T16:48:40.423Z,11.20
2023-01-05T16:53:44.261Z,11.70
2023-01-05T16:58:46.340Z,8.30
2023-01-05T17:03:48.143Z,10.60
2023-01-05T17:08:49.974Z,13.57
2023-01-05T17:13:52.838Z,16.70
2023-01-05T17:18:54.380Z,12.77
2023-01-05T17:23:57.935Z,11.87
2023-01-05T17:34:02.938Z,8.27
2023-01-05T17:39:04.942Z,15.37
2023-01-05T17:44:06.603Z,11.93
2023-01-05T17:49:20.544Z,11.20
2023-01-05T17:54:22.112Z,12.77
2023-01-05T17:59:23.689Z,10.10
2023-01-05T18:04:26.358Z,14.33
2023-01-05T18:09:29.148Z,12.20
2023-01-05T18:14:30.735Z,8.63
2023-01-05T18:19:33.509Z,15.90
2023-01-05T18:24:35.291Z,16.80
2023-01-05T18:29:38.016Z,16.60
2023-01-05T18:34:41.251Z,8.57
2023-01-05T18:39:44.594Z,12.37
2023-01-05T18:44:46.143Z,10.13
2023-01-05T18:49:47.732Z,10.17
2023-01-05T18:54:50.231Z,10.23
2023-01-05T18:59:53.028Z,10.53
2023-01-05T19:04:55.903Z,12.33
2023-01-05T19:09:57.558Z,8.50
2023-01-05T19:14:59.295Z,5.57
2023-01-05T19:20:01.900Z,7.33
2023-01-05T19:25:05.582Z,5.07
2023-01-05T19:30:07.793Z,6.63
2023-01-05T19:35:09.840Z,3.90
2023-01-05T19:40:11.873Z,4.83
2023-01-05T19:45:13.527Z,6.50
2023-01-05T19:50:15.231Z,3.87
2023-01-05T19:55:16.928Z,4.40
2023-01-05T20:00:18.697Z,6.63
2023-01-05T20:05:20.325Z,6.50
2023-01-05T20:10:22.985Z,4.67
2023-01-05T20:15:24.498Z,4.33
2023-01-05T20:20:26.046Z,2.07
2023-01-05T20:25:27.641Z,2.47
2023-01-05T20:30:29.351Z,2.23
2023-01-05T20:35:31.115Z,3.93
2023-01-05T20:40:32.640Z,4.30
2023-01-05T20:45:34.201Z,3.00
2023-01-05T20:50:35.722Z,1.43
2023-01-05T20:55:39.386Z,3.17
2023-01-05T21:01:09.774Z,3.47
2023-01-05T21:06:04.136Z,2.63
2023-01-05T21:11:07.085Z,2.37
2023-01-05T21:16:10.415Z,2.57
2023-01-05T21:21:14.425Z,3.03
2023-01-05T21:26:16.894Z,1.70
2023-01-05T21:31:21.133Z,1.80
2023-01-05T21:36:29.298Z,1.77
2023-01-05T21:41:54.213Z,2.80
2023-01-05T21:46:58.352Z,3.43
2023-01-05T21:52:18.711Z,2.10
2023-01-05T21:57:21.139Z,3.70
2023-01-05T22:02:22.682Z,2.00
2023-01-05T22:07:24.302Z,2.80
2023-01-05T22:12:26.467Z,3.03
2023-01-05T22:17:28.195Z,1.50
2023-01-05T22:22:29.688Z,2.27
2023-01-05T22:27:31.283Z,2.70
2023-01-05T22:32:33.104Z,1.73
2023-01-05T22:37:34.928Z,2.03
2023-01-05T22:42:37.605Z,1.50
2023-01-05T22:47:39.204Z,2.00
2023-01-05T22:52:40.746Z,2.17
2023-01-05T22:57:42.513Z,1.13
2023-01-05T23:02:44.091Z,2.60
2023-01-05T23:07:45.917Z,1.40
2023-01-05T23:12:47.426Z,1.77
2023-01-05T23:17:49.243Z,1.50
2023-01-05T23:22:50.949Z,1.60
2023-01-05T23:27:54.010Z,3.23
2023-01-05T23:32:55.686Z,2.60
2023-01-05T23:37:57.219Z,3.03
2023-01-05T23:42:58.725Z,2.00
2023-01-05T23:48:00.339Z,3.97
2023-01-05T23:53:03.597Z,2.20
2023-01-05T23:58:05.606Z,2.00
